Time;durP1;ratioP1;P1;durP2;ratioP2;P2;SDS_P1;SDS_P2;PMS_P1;PMS_P2;Temp;Humidity;BMP_temperature;BMP_pressure;BME280_temperature;BME280_humidity;BME280_pressure;Samples;Min_cycle;Max_cycle;Signal;HPM_P1;HPM_P2
2022/06/09 00:00:57;;;;;;;;;;;23.10;99.90;;;;;;5125435;27;19928;-61
2022/06/09 00:03:31;;;;;;;;;;;23.10;99.90;;;;;;5132456;27;19935;-58
2022/06/09 00:05:59;;;;;;;;;;;23.10;99.90;;;;;;5131588;27;19923;-60
2022/06/09 00:08:28;;;;;;;;;;;23.10;99.90;;;;;;5126389;27;19927;-61
2022/06/09 00:10:56;;;;;;;;;;;23.10;99.90;;;;;;5116347;27;19924;-60
2022/06/09 00:13:24;;;;;;;;;;;23.10;99.90;;;;;;5108312;28;19928;-60
2022/06/09 00:15:51;;;;;;;;;;;23.10;99.90;;;;;;5113687;27;19938;-61
2022/06/09 00:18:18;;;;;;;;;;;23.10;99.90;;;;;;5110400;28;19928;-59
2022/06/09 00:20:45;;;;;;;;;;;23.10;99.90;;;;;;5103317;28;20334;-61
2022/06/09 00:23:13;;;;;;;;;;;23.10;99.90;;;;;;5115872;27;19954;-61
2022/06/09 00:25:40;;;;;;;;;;;23.10;99.90;;;;;;5122465;27;19923;-61
2022/06/09 00:28:07;;;;;;;;;;;23.10;99.90;;;;;;5118284;27;20279;-57
2022/06/09 00:30:34;;;;;;;;;;;23.10;99.90;;;;;;5110617;28;19935;-61
2022/06/09 00:33:02;;;;;;;;;;;23.00;99.90;;;;;;5111521;27;19939;-60
2022/06/09 00:35:29;;;;;;;;;;;23.00;99.90;;;;;;5112349;27;20616;-58
2022/06/09 00:37:57;;;;;;;;;;;23.00;99.90;;;;;;5113258;27;19928;-60
2022/06/09 00:40:24;;;;;;;;;;;23.00;99.90;;;;;;5119629;27;19931;-59
2022/06/09 00:42:51;;;;;;;;;;;23.00;99.90;;;;;;5117712;27;19927;-62
2022/06/09 00:45:27;;;;;;;;;;;23.00;99.90;;;;;;5118404;27;19935;-59
2022/06/09 00:48:05;;;;;;;;;;;23.00;99.90;;;;;;5117794;27;19927;-59
2022/06/09 00:50:34;;;;;;;;;;;23.10;99.90;;;;;;5121220;27;19928;-58
2022/06/09 00:53:03;;;;;;;;;;;23.00;99.90;;;;;;5122058;27;19931;-58
2022/06/09 00:55:32;;;;;;;;;;;23.10;99.90;;;;;;5115120;27;20341;-59
2022/06/09 00:58:02;;;;;;;;;;;23.00;99.90;;;;;;5114987;27;19934;-59
2022/06/09 01:00:34;;;;;;;;;;;23.00;99.90;;;;;;5123792;27;19931;-59
2022/06/09 01:03:02;;;;;;;;;;;23.00;99.90;;;;;;5129332;27;19924;-62
2022/06/09 01:05:32;;;;;;;;;;;23.00;99.90;;;;;;5114234;27;20113;-61
2022/06/09 01:08:00;;;;;;;;;;;23.00;99.90;;;;;;5119274;27;20008;-61
2022/06/09 01:10:29;;;;;;;;;;;22.90;99.90;;;;;;5119308;27;20306;-62
2022/06/09 01:12:58;;;;;;;;;;;22.90;99.50;;;;;;5110862;27;19934;-62
2022/06/09 01:15:32;;;;;;;;;;;22.80;99.20;;;;;;5113292;27;19931;-58
2022/06/09 01:18:18;;;;;;;;;;;22.80;98.90;;;;;;5115364;27;19928;-61
2022/06/09 01:20:58;;;;;;;;;;;22.80;98.60;;;;;;5114011;27;20005;-61
2022/06/09 01:23:31;;;;;;;;;;;22.70;98.20;;;;;;5109773;27;20330;-60
2022/06/09 01:26:17;;;;;;;;;;;22.70;98.10;;;;;;5114051;27;19931;-60
2022/06/09 01:29:14;;;;;;;;;;;22.70;98.00;;;;;;5109771;27;19932;-57
2022/06/09 01:31:46;;;;;;;;;;;22.70;97.70;;;;;;5051875;27;19936;-61
2022/06/09 01:34:23;;;;;;;;;;;22.70;97.60;;;;;;5119704;27;19927;-59
2022/06/09 01:36:53;;;;;;;;;;;22.70;97.70;;;;;;5122653;27;19934;-61
2022/06/09 01:39:28;;;;;;;;;;;22.70;98.00;;;;;;5111635;27;19935;-61
2022/06/09 01:41:55;;;;;;;;;;;22.70;98.10;;;;;;5120078;27;19928;-60
2022/06/09 01:44:22;;;;;;;;;;;22.70;98.10;;;;;;5111101;27;20300;-60
2022/06/09 01:46:50;;;;;;;;;;;22.80;98.20;;;;;;5127579;27;19937;-61
2022/06/09 01:49:23;;;;;;;;;;;22.80;98.30;;;;;;5111482;27;19928;-62
2022/06/09 01:51:51;;;;;;;;;;;22.70;98.30;;;;;;5118271;27;20019;-60
2022/06/09 01:54:21;;;;;;;;;;;22.70;98.30;;;;;;5128490;27;19971;-62
2022/06/09 01:56:53;;;;;;;;;;;22.70;98.40;;;;;;5115658;27;19928;-60
2022/06/09 01:59:23;;;;;;;;;;;22.70;98.50;;;;;;5120150;27;20379;-62
2022/06/09 02:01:53;;;;;;;;;;;22.70;98.50;;;;;;5116156;27;19964;-62
2022/06/09 02:04:23;;;;;;;;;;;22.70;98.50;;;;;;5130365;27;19931;-60
2022/06/09 02:06:50;;;;;;;;;;;22.70;98.50;;;;;;5147968;27;19928;-60
2022/06/09 02:09:17;;;;;;;;;;;22.70;98.60;;;;;;5132891;27;19970;-58
2022/06/09 02:11:46;;;;;;;;;;;22.70;98.60;;;;;;5141217;27;20298;-60
2022/06/09 02:14:14;;;;;;;;;;;22.70;98.60;;;;;;5136417;27;19923;-59
2022/06/09 02:16:42;;;;;;;;;;;22.70;98.60;;;;;;5128315;27;19928;-59
2022/06/09 02:19:09;;;;;;;;;;;22.70;98.70;;;;;;5132647;27;19938;-59
2022/06/09 02:21:37;;;;;;;;;;;22.70;98.60;;;;;;5126989;27;19938;-61
2022/06/09 02:24:04;;;;;;;;;;;22.70;98.60;;;;;;5129043;27;19931;-58
2022/06/09 02:26:32;;;;;;;;;;;22.70;98.60;;;;;;5122458;27;20445;-62
2022/06/09 02:28:59;;;;;;;;;;;22.70;98.60;;;;;;5116860;27;19955;-60
2022/06/09 02:31:26;;;;;;;;;;;22.70;98.60;;;;;;5133311;27;20402;-61
2022/06/09 02:33:54;;;;;;;;;;;22.70;98.60;;;;;;5124382;27;19929;-59
2022/06/09 02:36:21;;;;;;;;;;;22.70;98.60;;;;;;5129317;27;19927;-59
2022/06/09 02:38:49;;;;;;;;;;;22.70;98.60;;;;;;5130037;27;19946;-61
2022/06/09 02:41:16;;;;;;;;;;;22.70;98.60;;;;;;5135218;27;19930;-61
2022/06/09 02:43:43;;;;;;;;;;;22.70;98.60;;;;;;5104012;28;19951;-58
2022/06/09 02:46:11;;;;;;;;;;;22.70;98.90;;;;;;5123713;27;19927;-59
2022/06/09 02:48:40;;;;;;;;;;;22.70;98.70;;;;;;5133265;27;20476;-61
2022/06/09 02:51:18;;;;;;;;;;;22.70;98.70;;;;;;5137451;27;19934;-61
2022/06/09 02:53:45;;;;;;;;;;;22.70;98.70;;;;;;5108656;27;19931;-61
2022/06/09 02:56:13;;;;;;;;;;;22.70;98.70;;;;;;5126065;27;19927;-60
2022/06/09 02:58:40;;;;;;;;;;;22.70;98.70;;;;;;5111308;28;19927;-62
2022/06/09 03:01:07;;;;;;;;;;;22.70;98.80;;;;;;5114048;27;19978;-61
2022/06/09 03:03:34;;;;;;;;;;;22.70;98.80;;;;;;5118322;27;19923;-59
2022/06/09 03:06:03;;;;;;;;;;;22.60;98.70;;;;;;5143210;27;19931;-59
2022/06/09 03:08:30;;;;;;;;;;;22.60;98.70;;;;;;5137325;27;19935;-59
2022/06/09 03:10:57;;;;;;;;;;;22.60;98.70;;;;;;5115388;27;19928;-59
2022/06/09 03:13:24;;;;;;;;;;;22.60;98.70;;;;;;5129575;27;20386;-56
2022/06/09 03:15:52;;;;;;;;;;;22.60;98.70;;;;;;5141983;27;19950;-62
2022/06/09 03:18:19;;;;;;;;;;;22.60;98.70;;;;;;5124178;27;19935;-61
2022/06/09 03:20:46;;;;;;;;;;;22.60;98.70;;;;;;5119367;27;19927;-60
2022/06/09 03:23:14;;;;;;;;;;;22.60;98.70;;;;;;5115689;27;20246;-60
2022/06/09 03:25:43;;;;;;;;;;;22.60;98.80;;;;;;5120411;27;19927;-60
2022/06/09 03:28:10;;;;;;;;;;;22.60;98.80;;;;;;5111211;27;19930;-60
2022/06/09 03:30:37;;;;;;;;;;;22.60;98.70;;;;;;5122893;27;19934;-62
2022/06/09 03:33:04;;;;;;;;;;;22.60;98.70;;;;;;5133489;27;19924;-61
2022/06/09 03:35:32;;;;;;;;;;;22.60;98.80;;;;;;5118888;27;19928;-63
2022/06/09 03:38:00;;;;;;;;;;;22.60;98.70;;;;;;5118878;27;19927;-61
2022/06/09 03:40:28;;;;;;;;;;;22.60;98.70;;;;;;5124796;27;20294;-61
2022/06/09 03:42:56;;;;;;;;;;;22.60;98.70;;;;;;5110679;28;19938;-61
2022/06/09 03:45:23;;;;;;;;;;;22.60;98.70;;;;;;5116309;27;19927;-59
2022/06/09 03:47:50;;;;;;;;;;;22.60;98.70;;;;;;5100185;28;19935;-61
2022/06/09 03:50:19;;;;;;;;;;;22.60;98.70;;;;;;5118338;27;19928;-59
2022/06/09 03:52:46;;;;;;;;;;;22.60;98.60;;;;;;5133393;27;20406;-61
2022/06/09 03:55:14;;;;;;;;;;;22.60;98.60;;;;;;5129218;27;19927;-59
2022/06/09 03:57:42;;;;;;;;;;;22.60;98.60;;;;;;5134456;27;19952;-61
2022/06/09 04:00:13;;;;;;;;;;;22.60;98.60;;;;;;5127967;27;19928;-62
2022/06/09 04:02:40;;;;;;;;;;;22.60;98.60;;;;;;5134862;27;19923;-61
2022/06/09 04:05:07;;;;;;;;;;;22.60;98.60;;;;;;5129066;27;19928;-63
2022/06/09 04:07:34;;;;;;;;;;;22.60;98.50;;;;;;5137486;27;19930;-59
2022/06/09 04:10:02;;;;;;;;;;;22.60;98.80;;;;;;5142041;27;19932;-61
2022/06/09 04:12:30;;;;;;;;;;;22.60;98.50;;;;;;5139110;27;20542;-59
2022/06/09 04:14:57;;;;;;;;;;;22.60;98.40;;;;;;5131887;27;19928;-59
2022/06/09 04:17:24;;;;;;;;;;;22.60;98.50;;;;;;5127577;27;20302;-62
2022/06/09 04:19:51;;;;;;;;;;;22.60;98.50;;;;;;5144510;27;19927;-57
2022/06/09 04:22:18;;;;;;;;;;;22.60;98.50;;;;;;5123267;27;20286;-60
2022/06/09 04:24:45;;;;;;;;;;;22.60;98.50;;;;;;5135250;27;20455;-58
2022/06/09 04:27:13;;;;;;;;;;;22.60;98.40;;;;;;5126521;27;19946;-59
2022/06/09 04:29:40;;;;;;;;;;;22.60;98.40;;;;;;5112767;27;19924;-60
2022/06/09 04:32:07;;;;;;;;;;;22.60;98.50;;;;;;5129164;27;19928;-59
2022/06/09 04:34:34;;;;;;;;;;;22.60;98.40;;;;;;5124059;27;19931;-58
2022/06/09 04:37:01;;;;;;;;;;;22.60;98.30;;;;;;5133401;27;20528;-61
2022/06/09 04:39:29;;;;;;;;;;;22.70;98.20;;;;;;5135815;27;19928;-59
2022/06/09 04:41:56;;;;;;;;;;;22.70;98.10;;;;;;5126895;27;19935;-59
2022/06/09 04:44:23;;;;;;;;;;;22.80;98.20;;;;;;5124964;27;19933;-60
2022/06/09 04:46:50;;;;;;;;;;;22.80;98.20;;;;;;5130180;27;20289;-60
2022/06/09 04:49:17;;;;;;;;;;;22.80;98.20;;;;;;5134664;27;19947;-59
2022/06/09 04:51:44;;;;;;;;;;;22.80;98.20;;;;;;5093838;27;19928;-60
2022/06/09 04:54:11;;;;;;;;;;;22.80;98.30;;;;;;5119654;27;20650;-59
2022/06/09 04:56:39;;;;;;;;;;;22.70;98.30;;;;;;5136895;27;19927;-60
2022/06/09 04:59:06;;;;;;;;;;;22.80;98.30;;;;;;5132745;27;20286;-61
2022/06/09 05:01:33;;;;;;;;;;;22.70;98.20;;;;;;5133340;27;19928;-61
2022/06/09 05:04:01;;;;;;;;;;;22.80;98.20;;;;;;5107943;27;20045;-59
2022/06/09 05:06:28;;;;;;;;;;;22.80;98.20;;;;;;5115304;27;20306;-55
2022/06/09 05:08:56;;;;;;;;;;;22.80;98.20;;;;;;5129392;27;20289;-57
2022/06/09 05:11:24;;;;;;;;;;;22.80;98.20;;;;;;5129148;27;19951;-55
2022/06/09 05:13:51;;;;;;;;;;;22.80;98.20;;;;;;5119227;27;19928;-59
2022/06/09 05:16:18;;;;;;;;;;;22.80;98.20;;;;;;5098838;27;20322;-60
2022/06/09 05:18:46;;;;;;;;;;;22.80;98.20;;;;;;5132760;27;19939;-59
2022/06/09 05:21:13;;;;;;;;;;;22.70;98.20;;;;;;5124536;27;19924;-61
2022/06/09 05:23:41;;;;;;;;;;;22.70;98.20;;;;;;5124071;27;19960;-58
2022/06/09 05:26:08;;;;;;;;;;;22.70;98.30;;;;;;5127306;27;19927;-55
2022/06/09 05:28:35;;;;;;;;;;;22.70;98.20;;;;;;5134730;27;19927;-58
2022/06/09 05:31:03;;;;;;;;;;;22.70;98.20;;;;;;5120152;27;20393;-61
2022/06/09 05:33:30;;;;;;;;;;;22.70;98.20;;;;;;5132303;27;19938;-59
2022/06/09 05:35:58;;;;;;;;;;;22.70;98.20;;;;;;5129870;27;19928;-60
2022/06/09 05:46:45;;;;;;;;;;;22.80;98.20;;;;;;5116831;27;19927;-60
2022/06/09 05:49:17;;;;;;;;;;;22.80;98.10;;;;;;5136113;27;19927;-60
2022/06/09 05:51:45;;;;;;;;;;;22.80;98.10;;;;;;5125553;27;19934;-58
2022/06/09 05:54:12;;;;;;;;;;;22.90;98.00;;;;;;5127238;27;20313;-59
2022/06/09 05:56:39;;;;;;;;;;;22.90;98.00;;;;;;5131341;27;19934;-60
2022/06/09 05:59:07;;;;;;;;;;;22.90;98.10;;;;;;5121170;27;20379;-60
2022/06/09 06:01:34;;;;;;;;;;;22.90;98.30;;;;;;5107662;27;19924;-57
2022/06/09 06:04:06;;;;;;;;;;;22.90;98.00;;;;;;5111114;27;20401;-57
2022/06/09 06:06:33;;;;;;;;;;;22.90;98.20;;;;;;5120073;27;20390;-59
2022/06/09 06:09:11;;;;;;;;;;;23.00;98.20;;;;;;5109624;27;20445;-58
2022/06/09 06:11:39;;;;;;;;;;;22.90;98.20;;;;;;5115473;27;19928;-57
2022/06/09 06:14:08;;;;;;;;;;;23.00;98.20;;;;;;5111907;27;19927;-60
2022/06/09 06:16:36;;;;;;;;;;;22.90;98.10;;;;;;5118660;27;20459;-63
2022/06/09 06:19:04;;;;;;;;;;;23.00;98.30;;;;;;5116881;27;20382;-61
2022/06/09 06:21:32;;;;;;;;;;;22.90;98.30;;;;;;5114916;27;20464;-62
2022/06/09 06:23:59;;;;;;;;;;;23.00;98.40;;;;;;5116052;27;20034;-59
2022/06/09 06:26:26;;;;;;;;;;;23.00;98.10;;;;;;5114683;27;19927;-62
2022/06/09 06:28:53;;;;;;;;;;;22.90;98.10;;;;;;5120584;27;19927;-60
2022/06/09 06:31:21;;;;;;;;;;;22.90;97.90;;;;;;5125636;27;19927;-61
2022/06/09 06:33:48;;;;;;;;;;;22.90;98.00;;;;;;5121679;27;19938;-62
2022/06/09 06:36:15;;;;;;;;;;;23.00;98.00;;;;;;5115264;27;19927;-63
2022/06/09 06:38:42;;;;;;;;;;;23.00;98.10;;;;;;5111004;27;19939;-60
2022/06/09 06:41:11;;;;;;;;;;;23.00;98.30;;;;;;5118654;27;19928;-61
2022/06/09 06:43:43;;;;;;;;;;;23.00;98.30;;;;;;5113090;27;20193;-62
2022/06/09 06:46:10;;;;;;;;;;;23.00;98.30;;;;;;5120482;27;20385;-62
2022/06/09 06:48:38;;;;;;;;;;;23.00;98.50;;;;;;5119644;27;20401;-61
2022/06/09 06:51:05;;;;;;;;;;;23.00;98.40;;;;;;5110186;27;19935;-61
2022/06/09 06:53:34;;;;;;;;;;;23.00;98.30;;;;;;5096812;27;20389;-61
2022/06/09 06:56:01;;;;;;;;;;;23.10;98.20;;;;;;5116090;27;20283;-59
2022/06/09 06:58:28;;;;;;;;;;;23.00;98.20;;;;;;5120468;27;19945;-63
2022/06/09 07:00:57;;;;;;;;;;;22.90;97.70;;;;;;5125955;27;20135;-64
2022/06/09 07:03:24;;;;;;;;;;;22.70;98.20;;;;;;5125303;27;19927;-64
2022/06/09 07:06:00;;;;;;;;;;;22.40;96.70;;;;;;5122190;27;19927;-64
2022/06/09 07:08:28;;;;;;;;;;;22.10;96.00;;;;;;5128994;27;19931;-65
2022/06/09 07:10:55;;;;;;;;;;;22.10;97.90;;;;;;5116343;27;20329;-61
2022/06/09 07:13:22;;;;;;;;;;;22.30;97.20;;;;;;5132535;27;20455;-66
2022/06/09 07:15:50;;;;;;;;;;;22.50;96.80;;;;;;5115091;27;19935;-68
2022/06/09 07:18:20;;;;;;;;;;;22.60;96.90;;;;;;5104436;27;19934;-67
2022/06/09 07:20:47;;;;;;;;;;;22.70;96.80;;;;;;5125726;27;20759;-65
2022/06/09 07:23:15;;;;;;;;;;;22.80;97.00;;;;;;5128335;27;20310;-66
2022/06/09 07:25:42;;;;;;;;;;;22.80;97.00;;;;;;5123745;27;19928;-67
2022/06/09 07:28:10;;;;;;;;;;;22.80;97.20;;;;;;5126356;27;19931;-64
2022/06/09 07:30:37;;;;;;;;;;;22.90;97.20;;;;;;5122884;27;19938;-63
2022/06/09 07:33:05;;;;;;;;;;;22.80;97.10;;;;;;5115912;27;19943;-59
2022/06/09 07:35:34;;;;;;;;;;;22.90;97.40;;;;;;5101654;27;19927;-60
2022/06/09 07:38:04;;;;;;;;;;;22.90;97.50;;;;;;5128009;27;20357;-64
2022/06/09 07:40:32;;;;;;;;;;;22.90;97.50;;;;;;5114531;27;19923;-64
2022/06/09 07:43:01;;;;;;;;;;;22.90;97.60;;;;;;5118865;27;19927;-64
2022/06/09 07:45:29;;;;;;;;;;;22.90;97.80;;;;;;5103517;27;19964;-67
2022/06/09 07:47:57;;;;;;;;;;;22.90;98.10;;;;;;5129986;27;20330;-65
2022/06/09 07:50:24;;;;;;;;;;;22.90;98.30;;;;;;5119189;27;19928;-67
2022/06/09 07:52:52;;;;;;;;;;;22.90;98.30;;;;;;5122555;27;19928;-64
2022/06/09 07:55:22;;;;;;;;;;;22.90;98.30;;;;;;5124407;27;19931;-63
2022/06/09 07:57:50;;;;;;;;;;;22.90;98.30;;;;;;5108253;27;20453;-62
2022/06/09 08:00:18;;;;;;;;;;;22.90;98.40;;;;;;5105624;27;20027;-65
2022/06/09 08:02:45;;;;;;;;;;;22.80;98.30;;;;;;5126314;27;19927;-65
2022/06/09 08:05:14;;;;;;;;;;;22.90;98.40;;;;;;5128822;27;19939;-63
2022/06/09 08:07:42;;;;;;;;;;;22.80;98.50;;;;;;5124190;27;20406;-63
2022/06/09 08:10:10;;;;;;;;;;;22.80;98.60;;;;;;5119884;27;20461;-66
2022/06/09 08:12:37;;;;;;;;;;;22.80;98.70;;;;;;5119713;27;19943;-63
2022/06/09 08:15:05;;;;;;;;;;;22.80;98.60;;;;;;5118712;27;19932;-65
2022/06/09 08:17:32;;;;;;;;;;;22.80;98.70;;;;;;5119366;27;19939;-63
2022/06/09 08:19:59;;;;;;;;;;;22.90;98.70;;;;;;5116881;27;19927;-64
2022/06/09 08:22:27;;;;;;;;;;;22.90;98.70;;;;;;5097411;27;19928;-63
2022/06/09 08:24:55;;;;;;;;;;;22.90;98.70;;;;;;5099386;27;19928;-62
2022/06/09 08:27:23;;;;;;;;;;;22.90;98.70;;;;;;5117227;27;20315;-65
2022/06/09 08:29:51;;;;;;;;;;;22.90;98.60;;;;;;5115729;27;19935;-62
2022/06/09 08:32:18;;;;;;;;;;;22.90;98.70;;;;;;5112074;27;19935;-65
2022/06/09 08:34:45;;;;;;;;;;;22.90;98.70;;;;;;5112806;27;19928;-63
2022/06/09 08:37:12;;;;;;;;;;;22.90;98.70;;;;;;5094864;27;19962;-59
2022/06/09 08:39:40;;;;;;;;;;;22.90;98.60;;;;;;5112495;27;19931;-60
2022/06/09 08:42:23;;;;;;;;;;;22.90;98.70;;;;;;5098352;27;19931;-63
2022/06/09 08:44:50;;;;;;;;;;;22.90;98.70;;;;;;5092026;27;19927;-65
2022/06/09 08:47:23;;;;;;;;;;;22.90;98.70;;;;;;5082081;27;19932;-66
2022/06/09 08:49:58;;;;;;;;;;;22.90;98.60;;;;;;5114732;27;19954;-60
2022/06/09 08:52:41;;;;;;;;;;;22.90;98.90;;;;;;5113323;27;19927;-63
2022/06/09 08:55:23;;;;;;;;;;;22.90;98.90;;;;;;5112015;27;19969;-57
2022/06/09 08:57:52;;;;;;;;;;;22.90;99.90;;;;;;5098159;27;19927;-64
2022/06/09 09:00:22;;;;;;;;;;;22.90;99.90;;;;;;5092214;27;19931;-63
2022/06/09 09:02:51;;;;;;;;;;;23.00;99.90;;;;;;5114027;27;20317;-64
2022/06/09 09:05:24;;;;;;;;;;;23.00;99.90;;;;;;5113230;27;21481;-64
2022/06/09 09:08:03;;;;;;;;;;;23.10;99.90;;;;;;5113921;27;19934;-61
2022/06/09 09:10:49;;;;;;;;;;;23.10;99.90;;;;;;5112854;27;19927;-62
2022/06/09 09:13:21;;;;;;;;;;;23.10;99.90;;;;;;5117658;27;20041;-64
2022/06/09 09:15:52;;;;;;;;;;;23.10;99.90;;;;;;5113271;27;19927;-61
2022/06/09 09:18:44;;;;;;;;;;;23.10;99.90;;;;;;5114633;27;19927;-62
2022/06/09 09:21:12;;;;;;;;;;;23.10;99.90;;;;;;5114635;27;19932;-64
2022/06/09 09:23:42;;;;;;;;;;;23.10;99.90;;;;;;5114285;27;19935;-60
2022/06/09 09:26:12;;;;;;;;;;;23.10;99.90;;;;;;5117008;27;20042;-61
2022/06/09 09:28:47;;;;;;;;;;;23.10;99.90;;;;;;5109687;27;20453;-61
2022/06/09 09:31:38;;;;;;;;;;;23.10;99.90;;;;;;5084676;27;20322;-62
2022/06/09 09:34:16;;;;;;;;;;;23.10;99.90;;;;;;5095773;27;20448;-61
2022/06/09 09:36:45;;;;;;;;;;;23.00;99.90;;;;;;5115503;27;20369;-64
2022/06/09 09:39:17;;;;;;;;;;;23.00;99.90;;;;;;5121603;27;19927;-61
2022/06/09 09:41:45;;;;;;;;;;;23.00;99.90;;;;;;5119778;27;20390;-60
2022/06/09 09:44:17;;;;;;;;;;;23.00;99.90;;;;;;5117328;27;20402;-62
2022/06/09 09:46:59;;;;;;;;;;;23.00;99.90;;;;;;5109736;27;19928;-64
2022/06/09 09:49:26;;;;;;;;;;;23.00;99.90;;;;;;5111264;27;19927;-64
2022/06/09 09:51:53;;;;;;;;;;;23.10;99.90;;;;;;5115652;27;19935;-61
2022/06/09 09:54:26;;;;;;;;;;;23.10;99.90;;;;;;5114396;27;20386;-62
2022/06/09 09:57:02;;;;;;;;;;;23.10;99.90;;;;;;5096936;27;19928;-57
2022/06/09 09:59:31;;;;;;;;;;;23.10;99.90;;;;;;5113109;27;19942;-64
2022/06/09 10:08:36;;;;;;;;;;;23.10;99.90;;;;;;5116601;27;19951;-63
2022/06/09 10:14:27;;;;;;;;;;;23.10;99.90;;;;;;5111530;27;20306;-59
2022/06/09 10:17:39;;;;;;;;;;;23.10;99.90;;;;;;5120337;27;19930;-63
2022/06/09 10:20:47;;;;;;;;;;;23.10;99.90;;;;;;5097619;27;19915;-64
2022/06/09 10:23:33;;;;;;;;;;;23.00;99.90;;;;;;5113889;27;19928;-64
2022/06/09 10:26:09;;;;;;;;;;;23.00;99.90;;;;;;5118148;27;20378;-65
2022/06/09 10:28:50;;;;;;;;;;;23.10;99.90;;;;;;5127819;27;19927;-63
2022/06/09 10:31:37;;;;;;;;;;;23.00;99.90;;;;;;5120230;27;19931;-63
2022/06/09 10:34:11;;;;;;;;;;;23.00;99.90;;;;;;5125177;27;20375;-61
2022/06/09 10:36:47;;;;;;;;;;;22.90;99.90;;;;;;5128889;27;19931;-60
2022/06/09 10:39:29;;;;;;;;;;;22.90;99.90;;;;;;5126738;27;20394;-59
2022/06/09 10:42:00;;;;;;;;;;;22.80;99.90;;;;;;5141305;27;19927;-62
2022/06/09 10:44:57;;;;;;;;;;;22.80;99.80;;;;;;5125724;27;19942;-65
2022/06/09 10:56:04;;;;;;;;;;;22.80;99.40;;;;;;5110295;27;20422;-62
2022/06/09 10:58:37;;;;;;;;;;;22.80;99.40;;;;;;5120756;27;20269;-61
2022/06/09 11:01:04;;;;;;;;;;;22.80;99.30;;;;;;5130232;27;19924;-61
2022/06/09 11:03:35;;;;;;;;;;;22.80;99.30;;;;;;5112391;27;19924;-61
2022/06/09 11:06:21;;;;;;;;;;;22.80;99.30;;;;;;5129505;27;19928;-60
2022/06/09 11:08:57;;;;;;;;;;;22.80;99.30;;;;;;5115090;28;20426;-63
2022/06/09 11:11:24;;;;;;;;;;;22.80;99.30;;;;;;5117515;27;19928;-62
2022/06/09 11:13:54;;;;;;;;;;;22.80;99.30;;;;;;5111093;28;20306;-61
2022/06/09 11:16:41;;;;;;;;;;;22.80;99.30;;;;;;5109691;28;19947;-61
2022/06/09 11:19:12;;;;;;;;;;;22.80;99.20;;;;;;5092108;28;19950;-60
2022/06/09 11:21:54;;;;;;;;;;;22.80;99.10;;;;;;5118822;28;19938;-62
2022/06/09 11:24:27;;;;;;;;;;;22.80;99.10;;;;;;5109274;28;19928;-62
2022/06/09 11:26:54;;;;;;;;;;;22.80;99.00;;;;;;5093541;28;20041;-63
2022/06/09 11:29:41;;;;;;;;;;;22.80;99.00;;;;;;5117334;28;20350;-61
2022/06/09 11:32:20;;;;;;;;;;;22.90;99.00;;;;;;5123288;28;19932;-63
2022/06/09 11:35:06;;;;;;;;;;;22.90;98.90;;;;;;5115695;28;20417;-58
2022/06/09 11:37:39;;;;;;;;;;;22.90;98.90;;;;;;5111143;28;20318;-63
2022/06/09 11:40:35;;;;;;;;;;;22.80;98.80;;;;;;5112836;27;19928;-63
2022/06/09 11:43:19;;;;;;;;;;;22.80;98.80;;;;;;5093954;28;19951;-63
2022/06/09 11:45:55;;;;;;;;;;;22.80;98.70;;;;;;5110611;28;19934;-60
2022/06/09 11:48:35;;;;;;;;;;;22.80;98.70;;;;;;5098439;28;19928;-61
2022/06/09 11:51:02;;;;;;;;;;;22.80;98.70;;;;;;5124445;28;19932;-63
2022/06/09 11:53:31;;;;;;;;;;;22.80;98.60;;;;;;5120718;28;19938;-65
2022/06/09 11:56:17;;;;;;;;;;;22.80;98.60;;;;;;5112480;27;19935;-64
2022/06/09 11:58:46;;;;;;;;;;;22.80;98.80;;;;;;5114544;27;19927;-67
2022/06/09 12:01:19;;;;;;;;;;;22.90;98.90;;;;;;5119361;27;19930;-66
2022/06/09 12:03:56;;;;;;;;;;;23.00;99.30;;;;;;5117517;27;19930;-67
2022/06/09 12:06:41;;;;;;;;;;;23.00;99.10;;;;;;5118977;27;19928;-63
2022/06/09 12:09:30;;;;;;;;;;;23.10;99.00;;;;;;5115343;27;19932;-64
2022/06/09 12:12:03;;;;;;;;;;;23.10;98.90;;;;;;5107439;27;19931;-63
2022/06/09 12:14:32;;;;;;;;;;;23.10;99.00;;;;;;5123538;27;19934;-60
2022/06/09 12:17:05;;;;;;;;;;;23.10;99.00;;;;;;5128491;27;19934;-63
2022/06/09 12:19:57;;;;;;;;;;;23.10;99.20;;;;;;5114655;27;19927;-59
2022/06/09 12:22:39;;;;;;;;;;;23.10;99.30;;;;;;5118741;27;19927;-58
2022/06/09 12:25:10;;;;;;;;;;;23.10;99.50;;;;;;5120881;27;20329;-64
2022/06/09 12:27:38;;;;;;;;;;;23.10;99.50;;;;;;5123090;27;19965;-63
2022/06/09 12:30:08;;;;;;;;;;;23.10;99.70;;;;;;5121754;27;19928;-66
2022/06/09 12:32:52;;;;;;;;;;;23.10;99.90;;;;;;5121231;27;20432;-65
2022/06/09 12:35:35;;;;;;;;;;;23.10;99.90;;;;;;5128918;27;20421;-59
2022/06/09 12:38:19;;;;;;;;;;;23.10;99.90;;;;;;5117690;27;19939;-61
2022/06/09 12:40:49;;;;;;;;;;;23.10;99.90;;;;;;5121338;27;19927;-63
2022/06/09 12:43:35;;;;;;;;;;;23.00;99.80;;;;;;5114396;27;19935;-62
2022/06/09 12:46:06;;;;;;;;;;;23.00;99.90;;;;;;5128277;27;19935;-60
2022/06/09 12:48:34;;;;;;;;;;;23.00;99.90;;;;;;5120236;27;19927;-61
2022/06/09 12:51:04;;;;;;;;;;;23.00;99.90;;;;;;5127273;27;20431;-62
2022/06/09 12:53:34;;;;;;;;;;;23.10;99.90;;;;;;5114831;27;19928;-62
2022/06/09 12:56:04;;;;;;;;;;;23.10;99.90;;;;;;5120440;27;19936;-62
2022/06/09 12:58:36;;;;;;;;;;;23.10;99.90;;;;;;5125020;27;19971;-64
2022/06/09 13:01:05;;;;;;;;;;;23.20;99.90;;;;;;5104255;28;19935;-63
2022/06/09 13:03:35;;;;;;;;;;;23.20;99.90;;;;;;5122222;27;19939;-63
2022/06/09 13:06:10;;;;;;;;;;;23.30;99.90;;;;;;5116857;27;19938;-65
2022/06/09 13:08:44;;;;;;;;;;;23.30;99.90;;;;;;5122000;27;19942;-64
2022/06/09 13:11:18;;;;;;;;;;;23.30;99.90;;;;;;5119089;27;20673;-64
2022/06/09 13:13:46;;;;;;;;;;;23.30;99.90;;;;;;5118389;27;19932;-63
2022/06/09 13:16:24;;;;;;;;;;;23.30;98.30;;;;;;5115952;27;19928;-62
2022/06/09 13:18:54;;;;;;;;;;;23.30;98.40;;;;;;5103763;27;19928;-63
2022/06/09 13:21:23;;;;;;;;;;;23.30;98.10;;;;;;5115148;27;20317;-61
2022/06/09 13:23:51;;;;;;;;;;;23.30;97.20;;;;;;5099617;27;19950;-61
2022/06/09 13:26:37;;;;;;;;;;;23.20;96.80;;;;;;5118481;27;20437;-64
2022/06/09 13:29:11;;;;;;;;;;;23.20;96.60;;;;;;5120122;27;19924;-61
2022/06/09 13:31:41;;;;;;;;;;;23.10;95.90;;;;;;5111935;27;19928;-62
2022/06/09 13:34:11;;;;;;;;;;;23.20;95.90;;;;;;5113793;27;19928;-62
2022/06/09 13:36:41;;;;;;;;;;;23.30;95.50;;;;;;5105346;27;20456;-61
2022/06/09 13:39:26;;;;;;;;;;;23.40;95.30;;;;;;5124523;27;19934;-61
2022/06/09 13:42:05;;;;;;;;;;;23.40;95.20;;;;;;5119025;27;19928;-56
2022/06/09 13:44:43;;;;;;;;;;;23.50;95.00;;;;;;5117017;27;19928;-61
2022/06/09 13:47:13;;;;;;;;;;;23.50;95.00;;;;;;5127259;27;20000;-62
2022/06/09 13:50:00;;;;;;;;;;;23.60;95.10;;;;;;5108293;27;19923;-62
2022/06/09 13:52:35;;;;;;;;;;;23.60;94.80;;;;;;5121930;27;20245;-62
2022/06/09 13:55:04;;;;;;;;;;;23.60;94.60;;;;;;5126852;27;20162;-62
2022/06/09 13:57:35;;;;;;;;;;;23.60;94.50;;;;;;5126912;27;19927;-64
2022/06/09 14:00:08;;;;;;;;;;;23.50;94.30;;;;;;5100858;27;19940;-63
2022/06/09 14:02:53;;;;;;;;;;;23.50;94.10;;;;;;5070147;28;19935;-60
2022/06/09 14:05:28;;;;;;;;;;;23.50;93.80;;;;;;5061581;28;19933;-62
2022/06/09 14:07:56;;;;;;;;;;;23.50;93.50;;;;;;5061664;28;19929;-62
2022/06/09 14:10:24;;;;;;;;;;;23.60;93.40;;;;;;5056022;28;19955;-63
2022/06/09 14:12:51;;;;;;;;;;;23.70;93.60;;;;;;5056417;28;19929;-63
2022/06/09 14:15:20;;;;;;;;;;;23.70;93.20;;;;;;5054489;28;19948;-61
2022/06/09 14:17:49;;;;;;;;;;;23.70;93.30;;;;;;5052857;28;19928;-60
2022/06/09 14:20:24;;;;;;;;;;;23.70;93.40;;;;;;5054533;28;20007;-61
2022/06/09 14:22:52;;;;;;;;;;;23.70;93.50;;;;;;5058251;28;20308;-62
2022/06/09 14:25:19;;;;;;;;;;;23.70;93.70;;;;;;5061071;28;19929;-62
2022/06/09 14:27:46;;;;;;;;;;;23.70;93.90;;;;;;5062032;28;19952;-62
2022/06/09 14:30:14;;;;;;;;;;;23.70;94.10;;;;;;5060892;28;19935;-62
2022/06/09 14:32:42;;;;;;;;;;;23.70;94.20;;;;;;5061146;28;19932;-62
2022/06/09 14:35:13;;;;;;;;;;;23.80;94.20;;;;;;5057861;28;19936;-59
2022/06/09 14:37:40;;;;;;;;;;;23.90;94.30;;;;;;5060077;28;19928;-62
2022/06/09 14:40:18;;;;;;;;;;;23.80;94.30;;;;;;5061153;28;20338;-64
2022/06/09 14:42:46;;;;;;;;;;;23.90;94.30;;;;;;5059958;28;20390;-62
2022/06/09 14:45:14;;;;;;;;;;;23.90;94.30;;;;;;5053577;28;20024;-62
2022/06/09 14:47:41;;;;;;;;;;;24.00;94.40;;;;;;5058657;28;19935;-62
2022/06/09 14:50:10;;;;;;;;;;;24.00;94.40;;;;;;5059272;28;19951;-62
2022/06/09 14:52:39;;;;;;;;;;;24.00;94.40;;;;;;5050565;28;19928;-62
2022/06/09 14:55:06;;;;;;;;;;;24.10;95.00;;;;;;5056750;28;19937;-63
2022/06/09 14:57:35;;;;;;;;;;;24.10;95.40;;;;;;5050083;28;20388;-61
2022/06/09 15:00:03;;;;;;;;;;;24.10;95.70;;;;;;5061620;28;20042;-60
2022/06/09 15:02:30;;;;;;;;;;;24.10;95.70;;;;;;5055291;28;19936;-60
2022/06/09 15:04:57;;;;;;;;;;;24.20;95.70;;;;;;5059236;28;20394;-60